Simon Williams

Olheiro-Chefe - Blackpool
23 Abr 2028
Domingo
Processo

Personalidade

Adaptabilidade (16) Ambição (6) Controvérsia (16) Lealdade (9) Pressão (19) Profissionalismo (6) Espírito Esportivo (8) Temperamento (15)

Perfil

Estilo de Treinamento Democrático
Licença Nacional A
Determinação 9
Gestão de Pessoas 12
Motivação 8
Disciplina 9
Satisfação no Trabalho
100%
Fadiga
0%
Função Olheiro-Chefe
Salário 20.8K p/s
Contrato 14.03.2029

Desempenho

Comportamento Bom
Eficácia do Treinamento
33%
Desenvolvimento do Jogador
25%
Prevenção de Lesões
45%
Implementação Tática
20%

Eventos Recentes

Participou de uma reunião de recrutamento agora
Recomendou um alvo de transferência agora
Recomendou um alvo de transferência agora
Recomendou um alvo de transferência agora
Participou de uma reunião de recrutamento agora
Recomendou um alvo de transferência agora
Recomendou um alvo de transferência agora
Recomendou um alvo de transferência agora

Monitorando agora

140
Jogador Clube Status Habilidade Confiança Observado Última observação Último voto
Macaulay Langstaff Millwall Ativo 106 / 114 62% 1 10.01.2028 Aprovar
Mao Hosoya Santos Ativo 134 / 135 67% 1 01.01.2028 Aprovar
Julian Herrera Cortulua Ativo 119 / 119 66% 1 01.01.2028 Aprovar
Jake Evans Crewe Alexandra Negociando 99 / 111 73% 1 01.01.2028 Aprovar
Victor Hernandez Santa Fe Ativo 124 / 118 40% 1 04.10.2027 -
Uzoigwe Odinaka Gazelle Ativo 71 / 83 40% 1 17.09.2027 -
Jackson Imbiakha Muranga Seal Ativo 79 / 78 40% 1 17.09.2027 -
Matias Siltanen Malmo FF Ativo 123 / 137 40% 1 16.09.2027 -
Agustín De la Cuesta Racing Ativo 103 / 113 40% 1 16.09.2027 -
Daniel Ramirez Cortulua Ativo 75 / 74 40% 1 13.09.2027 -
Francisco Machis Llaneros Ativo 79 / 99 40% 1 13.09.2027 -
Jonny Shore New York City Ativo 109 / 91 40% 1 09.09.2027 -
Lucas Camejo River Plate Ativo 87 / 85 40% 1 08.09.2027 -
Chibueze Oputa Rangers International Ativo 80 / 86 40% 1 08.09.2027 -
Somtochuwku Ezenabo Kwara United Ativo 81 / 100 40% 1 07.09.2027 -
Nikolay Sotnikov Arsenal Dzerzhinsk Ativo 99 / 98 40% 1 07.09.2027 -
Óscar Hinojosa Metropolitanos Ativo 84 / 78 40% 1 06.09.2027 -
Ahmed Zaki Masr El Makasa Ativo 82 / 81 40% 1 19.07.2027 -
Martim Cunha Porto Ativo 106 / 108 40% 1 19.07.2027 -
Sheyi Ojo Crewe Alexandra Ativo 102 / 103 62% 1 14.06.2027 Aprovar
Ryan Oné Sheffield United Ativo 104 / 125 40% 3 31.05.2027 -
Wisdom Udom Bendel Insurance Ativo 93 / 97 40% 1 31.05.2027 -
Sam Bell Bristol City Ativo 126 / 110 40% 2 29.05.2027 -
Max Bird Birmingham Ativo 130 / 131 40% 1 29.05.2027 -
George Earthy Reading Ativo 108 / 117 40% 1 29.05.2027 -
Milan van Ewijk Coventry City Ativo 130 / 122 40% 2 28.05.2027 -
Tony Springett Cheltenham Town Ativo 115 / 109 40% 2 28.05.2027 Mais informações
Josh Coburn Millwall Ativo 112 / 131 40% 5 26.05.2027 -
Koki Saito Queens Park Rangers Ativo 129 / 128 40% 2 26.05.2027 -
Joe Gelhardt Hull City Ativo 144 / 139 40% 5 25.05.2027 -
Christian Saydee Wigan Athletic Ativo 112 / 110 40% 3 24.05.2027 -
Tyreece Campbell Charlton Athletic Ativo 120 / 120 40% 2 24.05.2027 -
Andre Brooks Sheffield United Ativo 137 / 129 40% 2 23.05.2027 -
Cian Ashford Cardiff City Ativo 128 / 120 40% 2 23.05.2027 -
Mees Rijks Bristol Rovers Ativo 102 / 113 40% 3 19.05.2027 -
John McAtee Leyton Orient Ativo 116 / 113 40% 1 17.05.2027 -
Mathias Kvistgaarden Norwich City Ativo 127 / 112 40% 3 16.05.2027 -
David Turnbull Cardiff City Ativo 114 / 107 40% 1 16.05.2027 -
Dennis Cirkin Queens Park Rangers Ativo 128 / 132 40% 1 15.05.2027 -
Rocco Vata Watford Ativo 115 / 128 40% 4 14.05.2027 -
Andri Guðjohnsen Blackburn Rovers Ativo 116 / 120 40% 1 12.05.2027 -
Oliver Skipp Leicester City Ativo 128 / 127 40% 1 11.05.2027 -
Tomáš Rigo Stoke City Ativo 126 / 126 40% 1 11.05.2027 -
Sam Greenwood Bristol City Ativo 130 / 110 40% 3 09.05.2027 -
Job Ochieng Real Sociedad Ativo 107 / 102 40% 1 07.05.2027 -
Stiven Shpendi Empoli Ativo 122 / 115 40% 3 06.05.2027 -
Aune Heggebø West Bromwich Albion Ativo 124 / 130 40% 3 05.05.2027 -
Ilyas Ansah Hull City Ativo 125 / 136 40% 10 04.05.2027 -
Derensili Sanches Fernandes Huddersfield Town Ativo 134 / 133 40% 2 03.05.2027 Mais informações
Camillo Tavernelli Arezzo Ativo 126 / 123 40% 1 29.04.2027 -
Lorent Tolaj Plymouth Argyle Ativo 116 / 120 40% 5 27.04.2027 -
Yousef Salech Cardiff City Ativo 120 / 118 40% 2 25.04.2027 -
Joseph Hungbo Wigan Athletic Ativo 115 / 114 40% 1 25.04.2027 -
Santiago Pierotti Lecce Ativo 125 / 119 40% 3 22.04.2027 -
Marezi Portsmouth Ativo 110 / 113 40% 3 16.04.2027 -
Wandile Duba ASO Chlef Ativo 120 / 119 40% 3 16.04.2027 -
Cameron Archer Southampton Ativo 124 / 131 40% 1 14.04.2027 -
Bernat Guiu Virtus Entella Ativo 111 / 122 40% 1 12.04.2027 -
Myles Peart-Harris Oxford United Ativo 120 / 122 40% 1 12.04.2027 -
Kiani Inge Groningen Ativo 112 / 121 40% 1 10.04.2027 -
Teboho Mokoena Black Aces Ativo 93 / 93 40% 1 10.04.2027 -
Evidence Makgopa Orlando Pirates Ativo 125 / 108 40% 2 07.04.2027 -
Samuele di Benedetto Twente Ativo 115 / 118 40% 1 06.04.2027 -
Kazunari Kita Real Sociedad Ativo 88 / 110 40% 1 06.04.2027 -
Abu Kamara Portsmouth Ativo 129 / 116 40% 1 03.04.2027 -
Jacques Ekomié Wrexham Ativo 138 / 136 40% 1 31.03.2027 -
John Mercado Sparta Prague Ativo 130 / 136 40% 1 31.03.2027 -
Richard Koné Queens Park Rangers Ativo 132 / 122 40% 5 27.03.2027 -
Jason Knight Bristol City Ativo 134 / 136 40% 2 26.03.2027 -
Bongani Zungu Ajax Cape Town Ativo 140 / 127 40% 1 24.03.2027 -
Etiosa Ighodaro Kaizer Chiefs Ativo 96 / 116 40% 6 20.03.2027 -
Armstrong Oko-Flex Levski Ativo 119 / 110 40% 3 19.03.2027 -
Simone Rabbi Ravenna Ativo 112 / 104 40% 2 19.03.2027 -
Samuel Edozie Southampton Ativo 121 / 120 40% 1 16.03.2027 -
Marcelo Allende Mamelodi Sundowns Ativo 140 / 114 40% 1 16.03.2027 -
Bradley Fink Wycombe Wanderers Ativo 117 / 123 40% 1 15.03.2027 -
Sam Dalby Bolton Wanderers Ativo 114 / 112 40% 1 13.03.2027 -
Erick Dolly Black Aces Ativo 127 / 130 40% 5 12.03.2027 -
Patrick Agyemang Derby County Ativo 127 / 135 40% 1 12.03.2027 -
Ruslan Apekov Torpedo Moscow Ativo 95 / 90 40% 1 11.03.2027 -
Harry Clarke Preston Ativo 127 / 125 40% 1 10.03.2027 -
Giorgi Kvernadze Frosinone Ativo 134 / 111 40% 1 09.03.2027 -
Themba Dala Black Aces Ativo 112 / 114 40% 1 06.03.2027 -
Jack Rudoni Coventry City Ativo 135 / 125 40% 1 06.03.2027 -
Adam Randell Bristol City Ativo 131 / 138 40% 2 03.03.2027 -
Brayan Gil Baltika Ativo 117 / 141 40% 1 28.02.2027 -
Leo Castledine Middlesbrough Ativo 136 / 143 40% 7 26.02.2027 -
Malik Mothersille Stockport County Ativo 104 / 104 40% 4 18.02.2027 -
Jacques Siwe Rubin Ativo 128 / 111 40% 2 17.02.2027 -
Tyrese Campbell Sheffield United Ativo 137 / 122 40% 2 04.02.2027 -
Mohamed-Ali Cho Hull City Ativo 133 / 135 40% 1 01.02.2027 -
Nicolás Arévalo Metalist Ativo 111 / 138 40% 1 25.01.2027 -
Welington Southampton Ativo 133 / 126 40% 1 25.01.2027 -
Max Johnston Derby County Ativo 123 / 135 40% 2 05.01.2027 -
Sampson Dweh Mallorca Ativo 133 / 134 66% 1 01.01.2027 Aprovar
Jefry Zapata Aldosivi Ativo 118 / 118 66% 1 01.01.2027 Aprovar
Peter Valjent FK Senica Ativo 120 / 105 40% 1 30.12.2026 -
Ousseynou Seck Randers Ativo 118 / 110 40% 2 28.12.2026 -
Reda Khadra Qarabag Ativo 136 / 141 40% 1 27.12.2026 -
Wessam Abou Ali Columbus Crew Ativo 125 / 141 40% 2 24.12.2026 -
Nico Valentine Doncaster Rovers Ativo 77 / 88 40% 1 24.12.2026 -
Matej Trusa DAC Dunajska Streda Ativo 117 / 129 40% 1 24.12.2026 -
Mateus Mané Burnley Ativo 141 / 141 40% 4 22.12.2026 -
Teboho Zwane Ajax Cape Town Ativo 100 / 120 40% 4 20.12.2026 -
Andy Rojas New York Red Bulls Ativo 88 / 108 40% 1 20.12.2026 -
Brooklyn Poggenpoel Maritzburg United Ativo 116 / 118 40% 1 20.12.2026 -
Ezekiel Kwame Alladoh Philadelphia Union Ativo 127 / 138 40% 2 15.12.2026 -
Joseph George Aigle Royal de Moungo Ativo 85 / 96 40% 2 15.12.2026 -
Ruben Ramos LA Galaxy Ativo 85 / 111 40% 4 12.12.2026 -
Abubakar Garba Nasarawa United Ativo 88 / 84 40% 2 12.12.2026 -
Naledi Hlongwane Wa All Stars Ativo 89 / 94 40% 1 10.12.2026 -
Suleiman Mojereola US Bougouba Ativo 86 / 78 40% 1 06.12.2026 -
Jesus Ferreira Seattle Sounders Ativo 141 / 118 40% 1 05.12.2026 -
Luke Baartman Ajax Cape Town Ativo 111 / 94 40% 3 03.12.2026 -
Lwanda Mbanjwa Platinum Stars Ativo 93 / 102 40% 2 03.12.2026 -
Kabu Agyemang Raymond Bechem United Ativo 87 / 69 40% 2 02.12.2026 -
Maren Kefas Plateau United Ativo 84 / 94 40% 1 26.11.2026 -
Iván Angulo Orlando City Ativo 125 / 143 40% 1 17.11.2026 -
Darlvin Yeboah Bechem United Ativo 83 / 91 40% 1 15.11.2026 -
Matías Contrera Hrvatski Dragovoljac Ativo 97 / 89 40% 2 14.11.2026 -
Mikel Gogorza Brondby Ativo 128 / 132 40% 3 12.11.2026 -
Jeong Sang-Bin St. Louis CITY SC Ativo 112 / 101 40% 1 12.11.2026 -
Harvey Sarajian Orlando City Ativo 73 / 112 40% 2 10.11.2026 -
Cheikh Sabaly Vancouver Whitecaps Ativo 113 / 126 40% 1 09.11.2026 -
Darren Yapi Colorado Rapids Ativo 120 / 130 40% 3 07.11.2026 -
Talles Magno New York City Ativo 144 / 118 40% 1 03.11.2026 -
Dejan Joveljić Seattle Sounders Ativo 130 / 112 40% 1 03.11.2026 -
Chinedu Onyinjekwu Bayelsa United Ativo 90 / 97 40% 2 29.10.2026 -
Tosin Olawale El-Kanemi Warriors Ativo 94 / 91 40% 3 26.10.2026 -
Itumeleng Hlatshwayo SuperSport United Ativo 60 / 70 40% 2 19.10.2026 -
Youssoufa Moukoko FC Copenhagen Ativo 122 / 138 40% 2 19.10.2026 -
Miloš Jovičić Zabbar St. Patrick Ativo 86 / 92 40% 2 15.10.2026 -
Alexander Lyng SonderjyskE Ativo 128 / 122 40% 1 01.10.2026 -
Jere Vrcić Birkirkara Ativo 90 / 102 40% 1 24.09.2026 -
Eddy Davis Philadelphia Union Ativo 81 / 90 40% 1 20.09.2026 -
Chineme Chinonso Ikorodu City Ativo 86 / 106 40% 1 15.09.2026 -
Gerardo Valenzuela FC Cincinnati Ativo 109 / 112 40% 1 13.09.2026 -
Joel Orlando Almagro Ativo 110 / 124 40% 1 07.09.2026 -
Johnly Yfeko Exeter City Ativo 109 / 116 58% 1 03.08.2026 -
Kobbie Mainoo Manchester United Ativo 157 / 166 40% 1 01.08.2026 -